Rating List


Tournament directors can view a complete rating list of all members both current and past. Right click on view to save this comma delimited text file so it can be imported to any database, spreadsheet or word processor you want. The file contains CFC Numbers, Names, Expiry Dates, Ratings (both active and regular) and Rating Indicators.

Ratings Calculator


Tournament players can calculate the approximate value of their new rating ahead of the weekly ratings update.

Player Information

Jason Wihnon
RatingHighest RatingActive RatingActive HighestFIDE RatingCFC#ExpiryCity/Prov
182419341917181274832014-08-01Edmonton, AB
View this player's FIDE Rating

Tournament Name

Tournament Date

Type

Games

Pre-Rating

Perf-Rating

Post-Rating

Total

2014 ECC June Challenge Matches 2014-06-26 R 1 1808 2216 1824 1.0
2014 ECC Capablanca Classic 2014-05-29 R 9 1824 1764 1808 4.5
2014 ECC Spring Open 2014-03-27 R 4 1834 1710 1824 2.0
2014 ECC Edmonton Reserves 2014-02-28 R 8 1823 1859 1834 4.0
ECC U2000 Prelims 2013-12-23 R 2 1836 1686 1823 1.0
2013 ECC November Open 2013-11-28 R 3 1823 1959 1836 1.5
2013 Geoff Newton Memorial - B 2013-11-03 R 5 1822 1830 1823 3.0
2013 ECC Halloween Open 2013-10-31 R 5 1790 2007 1822 3.0
2013 ECC Back to School Open 2013-09-26 R 4 1824 1576 1790 1.0
2013 ECC August Open 2013-08-29 R 5 1816 1867 1824 2.5
2013 Select Six Sectional 2013-08-18 R 5 1824 1788 1816 1.0
2013 ECC Summer Open 2013-07-25 R 4 1760 2028 1824 2.0
2013 ECC Holowach Challenge 2013-06-27 R 4 1734 1912 1760 2.0
2013 ECC May Open 2013-05-30 R 5 1756 1673 1734 2.5
2013 ECC April Open 2013-04-25 R 4 1736 1888 1756 2.5
2013 ECC Capablanca Classic 2013-03-28 R 3 1745 1650 1736 1.5
2013 Edmonton Ch Reserves 2013-02-28 R 7 1781 1646 1745 4.0
ECC Cor Dewindt Memorial 2012-11-29 R 3 1781 1797 1781 1.0
2012 ECC Halloween Open 2012-10-25 R 4 1804 1642 1781 1.5
2012 ECC Autumn Open 2012-09-27 R 4 1811 1691 1804 2.0
2012 ECC Frank Anderson Memorial 2012-08-30 R 5 1815 1816 1811 2.5
2012 ECC Summer Open 2012-07-26 R 4 1835 1690 1815 1.5
ECC Short Knights of Summer Open 2012-06-28 R 4 1855 1697 1835 1.0
2012 ECC Skeel Memorial 2012-05-31 R 1 1853 1895 1855 2.5
2012 Edmonton Ch Reserves 2012-02-24 R 7 1917 1686 1853 3.5
2011 ECC Christmas Open 2011-12-29 R 5 1843 2205 1917 3.5
ECC Autumn Open 2011-11-24 R 4 1878 1427 1843 1.5
2011 ECC Halloween Open 2011-10-27 R 4 1829 2069 1878 3.0
ECC Back To School Open 2011-09-29 R 5 1846 1768 1829 1.5
ECC August Open 2011-08-25 R 3 1841 1875 1846 2.5
ECC Welcome Back Shabba Open 2011-07-28 R 4 1849 1798 1841 2.0
2011 ECC Summer Open 2011-06-30 R 3 1881 1610 1849 1.5
ECC Holowach Challenge 2011-05-26 R 3 1884 1893 1881 1.0
First to 6 wins Match 2011-04-28 R 9 1934 1657 1884 2.0
2011 Edmonton Ch Reserves 2011-02-25 R 8 1910 1973 1934 5.0
2011 Northern Alberta Open 2011-02-20 R 4 1864 2134 1910 3.0
2010 ECC Christmas Open 2010-12-30 R 5 1892 1774 1864 1.5
ECC November Open 2010-11-25 R 4 1885 1942 1892 2.0
ECC Halloween Open 2010-10-28 R 4 1875 1963 1885 1.5
ECC Back To School Open 2010-09-30 R 4 1903 1733 1875 2.0
ECC Hollowach Challenge 2010-08-26 R 4 1879 1988 1903 2.5
ECC Canada Day Open 2010-07-29 R 4 1868 1910 1879 2.5
ECC Capablanca Classic 2010-05-27 R 4 1901 1675 1868 1.0
2010 ECC Skeel Memorial 2010-04-29 R 5 1916 1828 1901 2.0
2010 ECC Spring Open 2010-03-25 R 4 1878 2117 1916 2.0
2010 Edmonton Ch Reserves 2010-02-26 R 6 1925 1696 1878 4.0
2010 Edmonton Ch 2010-02-25 R 2 1934 1807 1925 0.0
ECC Christmas Open 2009-12-29 R 4 1929 1935 1934 2.5
ECC November Open 2009-11-26 R 4 1888 2090 1929 2.5
ECC Halloween Open 2009-10-29 R 5 1873 1945 1888 2.5
ECC Back To School Open 2009-09-24 R 4 1857 1940 1873 2.0
ECC Frank Anderson Memorial 2009-08-28 R 4 1799 2053 1857 3.0
ECC August Sectional Group C 2009-08-09 R 5 1812 1728 1799 2.5
ECC Shirov Shootout 2009-07-30 R 4 1800 1779 1812 3.0
ECC Summer Open 2009-06-25 R 4 1800 1765 1800 1.5
ECC Shnitka Memorial 2009-05-29 R 4 1796 1776 1800 2.5
ECC Skeel Memorial 2009-04-30 R 5 1718 2017 1796 4.0
Zeggelaar versus Wihnon Match 2009-03-26 R 4 1725 1634 1718 1.0
Edmonton Reserves 2009-02-27 R 6 1735 1645 1725 4.0
Edmonton Championship 2009 2009-02-26 R 2 1734 1854 1735 0.0
ECC Christmas Open 2008-12-30 R 3 1726 1740 1734 2.0
ECC Halloween Open 2008-10-30 R 5 1741 1648 1726 2.0
ECC Back to School Open 2008-09-25 R 4 1737 1721 1741 2.0
ECC Ottosen Open 2008-08-28 R 4 1737 1696 1737 2.0
Summer Sectional Group C 2008-08-03 R 5 1748 1693 1737 2.0
ECC Edmonton Open 2008-07-31 R 4 1754 1712 1748 1.5
ECC Summer Open 2008-06-26 R 4 1762 1695 1754 2.0
ECC Holowach Memorial 2008-05-29 R 5 1769 1730 1762 1.5
ECC Skeel Memorial 2008-04-24 R 4 1825 1844 1828 2.0
ECC Capablanca Classic 2008-03-27 R 4 1828 1419 1769 1.0
Edmonton Reserves 2008-02-28 R 4 1819 1835 1825 5.0
Edmonton Championship 2008-02-28 R 2 1823 1839 1819 0.0
ECC Christmas Open 2007-12-27 R 4 1805 1918 1823 2.0
Winter Open Section B 2007-12-16 R 5 1815 1869 1827 3.0
ECC Kristiania Open 2007-11-29 R 5 1827 1708 1805 3.0
ECC Halloween Open 2007-10-25 R 4 1802 1921 1815 2.0
ECC Back To School Open 2007-09-27 R 3 1779 2026 1802 2.0
ECC Heritage Open 2007-08-29 R 4 1823 1555 1779 1.5
2007 August Edmonton Section D 2007-08-05 R 5 1816 1856 1823 3.5
ECC Summer Open 2007-07-26 R 3 1797 1980 1816 2.5
ECC Ottosen Open 2007-06-28 R 4 1779 1905 1797 2.5
ECC Hollowach Challenge 2007-05-31 R 5 1776 1805 1779 2.0
ECC Skeel Memorial 2007-04-26 R 3 1826 1417 1776 1.0
ECC Capablanca Classic 2007-03-29 R 5 1862 1656 1826 2.0
2007 Edmonton Reserves 2007-02-22 R 6 1896 1725 1862 5.0
2007 Edmonton Championship 2007-02-22 R 2 1901 1901 1896 0.0
ECC Christmas Open 2006-12-28 R 4 1845 2099 1901 3.0
ECC Dance O Power 2006-11-30 R 5 1611 2061 1697 4.0
ECC Halloween Open 2006-10-26 R 3 1589 1772 1611 2.5
2006 ECC Autumn Open 2006-09-28 R 4 1575 1657 1589 3.0
ACA Under 1800 Open 2006-09-03 R 5 1561 1630 1575 3.5
Armouries Memorial 2006-08-31 R 5 1585 1446 1561 2.5
Caissas Temple Open 2006-06-30 R 5 1589 1568 1585 2.0
June Sectional D 2006-06-25 R 5 1630 1413 1589 1.0
ECC Hollowach Challenge 2006-05-25 R 4 1639 1583 1630 1.5
ECC Skeel Memorial 2006-04-27 R 3 1616 1827 1639 1.5
Edmonton Spring Sectional D 2006-04-15 R 4 1627 1556 1616 1.5
ECC Capablanca Classic 2006-03-30 R 2 1659 1256 1627 1.5
Match Ventura vs Wihnon 2006-03-16 R 4 1703 1435 1659 1.0
ECC Reserves 2006 2006-02-23 R 8 1695 1715 1703 5.0
ACA Reserves 2006 2006-02-20 R 3 1721 1494 1695 2.0
ECC Dance o Power 2005-11-24 R 3 1739 1596 1721 1.5
ECC Halloween Open 2005-11-16 R 3 1712 1938 1739 2.5
ECC Halloween Sectional D 2005-10-30 R 5 1717 1689 1712 3.0
Alberta Open 2005 2005-10-10 R 5 1750 1622 1732 3.0
ECC Back To School Open 2005-09-30 R 4 1732 1640 1717 1.5
ECC August Open 2005-08-25 R 4 1752 1703 1750 2.0
2005 Canadian Open 2005-07-17 R 10 1723 1774 1735 4.5
ECC Capablanca Classic Aug 4 2005-06-30 R 3 1735 1837 1752 4.0
Edmonton June Sectional C 2005-06-12 R 5 1730 1692 1723 2.0
ECC Skeel Memorial 2005-05-26 R 4 1753 1604 1730 2.0
ECC Hollowach Challenge 2005-04-28 R 4 1731 1868 1753 2.5
Edmonton Spring Sectional E 2005-04-03 R 5 1723 1760 1731 2.5
Jason Wihnon vs Richard Pua 2005-03-31 R 4 1767 1488 1723 0.5
Edmonton Reserves 2005 2005-03-03 R 4 1737 1915 1767 5.0
Northern Alberta Open Open Section 2005-02-06 R 4 1772 1574 1737 2.0
ECC Christmas Open 2004 2004-12-30 R 4 1807 1541 1772 2.0
Weekend Before Xmas Open 2004-12-19 R 4 1784 1918 1807 3.0
ECC Dance of Power 2004-11-25 R 4 1749 1960 1784 3.0
ECC Halloween Open 2004-10-28 R 4 1769 1603 1749 2.0
Edmonton September Sectional D 2004-09-23 R 5 1757 1821 1769 3.0
Edmonton CC Fall Under 1800 2004-09-05 R 4 1749 1784 1757 3.5
ECC August Open 2004-08-26 R 4 1761 1642 1749 2.5
ECC Summer Swiss 2004-07-29 R 5 1719 1920 1761 3.0
Edmonton July Swiss 2004-07-25 R 4 1707 1799 1719 2.5
ECC Skeel Memorial 2004-06-24 R 4 1705 1714 1707 2.5
June Sectional Section E 2004-06-06 R 5 1710 1677 1705 2.0
ECC Capablanca Classic 2004-05-27 R 3 1729 1491 1710 2.5
Grand 7 Open 2004-05-23 R 3 1771 1327 1729 1.0
ECC Hollowach Challenge 2004-05-08 R 4 1766 1780 1771 2.5
ECC Spring Open 2004-03-25 R 3 1743 1907 1766 3.0
ECC March Sectional E 2004-03-07 R 5 1729 1796 1743 2.5
Edmonton Closed Reserves 2004-02-26 R 7 1731 1796 1729 3.0
Northern Alberta Open 2004-02-22 R 4 1739 1689 1731 1.5
ECC Dance O Power 2003-11-30 R 4 1740 1707 1739 2.0
ECC Halloween Open 2003-10-30 R 5 1760 1658 1740 2.0
2003 Alberta Open 2003-10-13 R 5 1771 1701 1760 2.5
Back to School Open 2003-09-25 R 4 1807 1563 1771 2.0
ECC August Open 2003-08-28 R 4 1841 1529 1807 2.5
Simon Says Play Chess 2003-08-10 R 5 1827 1891 1841 3.0
ECC Summer Swiss 2003-07-31 R 5 1824 1820 1827 3.5
ECC Skeel Memorial 2003-06-26 R 4 1811 1852 1824 3.0
Capablanca Classic 2003-05-29 R 5 1796 1870 1811 3.0
Hollowich Schnitka Memorial 2003-04-24 R 4 1802 1789 1796 1.5
March Sectional C 2003-04-08 R 5 1835 1671 1802 1.5
ECC Spring Open 2003-04-07 R 4 1839 1797 1835 2.5
Northern Alberta Open 2003-02-23 R 5 1846 1812 1839 2.5
Edmonton Championship 2003 2003-02-20 R 8 1807 1958 1846 4.0
Wihnon vs Pua 2002-12-30 R 4 1763 2040 1807 3.5
ECC Christmas Classic 2002-12-19 R 3 1762 1712 1763 2.0
Two Weeks Before Christmas 2002-12-15 R 4 1751 1860 1762 2.5
Dance o Power 2002-11-28 R 2 1755 1713 1751 2.0
ECC Halloween Open 2002 2002-10-31 R 4 1773 1649 1755 2.0
Back to School Open 2002 2002-09-26 R 4 1825 1659 1809 2.0
Hughey vs Wihnon 2002-09-22 R 4 1809 1575 1773 0.0
Alberta Over 1800 2002-09-01 R 4 1837 1751 1825 1.5
August Open 2002-08-29 R 5 1852 1718 1837 3.5
Stark vs Wihnon Pt3 2002-08-11 R 4 1802 2124 1852 3.5
Summer Swiss Open 2002-07-25 R 4 1826 1688 1802 2.0
ECC Art Skeel Memorial 2002-06-27 R 3 1812 1932 1826 2.5
Edmonton Spring Sectional B 2002-06-16 R 5 1652 2106 1812 4.5
ECC Capablanca Classic 2002-05-30 R 4 1659 1632 1652 1.5
April Thursdays 2002-04-25 R 4 1696 1450 1659 1.0
Wihnon vs Stark Rematch 2002-04-01 R 4 1667 1843 1696 2.0
ECC Spring Open 2002-03-28 R 4 1646 1797 1667 2.0
Edmonton CC Championship 2002-02-14 R 7 1622 1706 1646 4.0
ECC Open 2002-01-17 R 4 1645 1532 1622 1.5
Dance O Power 2001-11-29 R 5 1646 1648 1645 2.0
October Open 2001-10-25 R 4 1657 1565 1646 1.5
Alberta Open 2001-10-08 R 6 1629 1813 1656 2.5
Graham vs Wihnon 2001-10-01 R 4 1656 1668 1657 3.0
September Thursdays 2001-09-27 R 4 1577 1816 1629 2.5
August Appreciation Tournament 2001-08-30 R 5 1576 1599 1577 2.0
Anderson Rock Lacroix farewell 2001-08-05 R 5 1549 1707 1576 2.5
ECC July Round Robins 2001-07-19 R 3 1542 1596 1549 1.5
Art Skeel Memorial 2001-06-28 R 4 1542 1555 1542 2.0
U of A Open 2001-05-31 R 5 1562 1487 1542 1.5
Abe Yanofsky Memorial Tmt 2001-05-27 R 5 1576 1503 1562 1.5
Wihnon Stark Match 2001-05-21 R 4 1566 1631 1576 2.5
ECC April Over Under Under 1675 2001-04-26 R 4 1560 1599 1566 2.0
ECC March Thursday 2001-03-29 R 4 1501 1867 1560 3.0
Weekend Before Christmas Open 2000-12-17 R 4 1550 1231 1502 0.5
ECC Xmas Open 2000-12-08 R 4 1502 1497 1501 1.0
ECC Dance O Power 2000-11-30 R 5 1554 1522 1550 2.0
ECC October 2000-10-26 R 3 1591 1269 1554 1.0
Edmonton Open 2000-09-28 R 4 1573 1661 1591 1.5
Lacroix vs Wihnon 2000-09-11 R 6 1581 1543 1573 2.5
Edmonton Labour Day Under 1800 2000-09-03 R 5 1580 1570 1580 2.5
ECC Summer Open 2000-08-31 R 5 1580 1557 1581 2.0
ECC Art Skeel Memorial 2000-06-29 R 5 1529 1703 1580 2.5
ECC Memories of Fisher 2000-05-25 R 4 1514 1552 1529 2.0
Hollowach Challenge 2000-04-27 R 4 1505 1523 1514 1.5
Edmonton Chess Club March Open 2000-03-30 R 4 0 1499 1505 2.0
Edmonton Chess Club Active 2003-12-18 A 6 1441 1341 1416 2.0
ECC February Active 2002-02-28 A 6 1462 1408 1441 3.5
ECC July Active 2000-07-27 A 6 0 1458 1462 3.0